• Join FlightAware (Why Join?)
  • Login
  • US Flag 
08:50PM EDT


 

Airport Tracker/Info


-or-


 

Live Flight TrackerFlight Track Log ✈ DAL863 ✈ 28-Apr-2013 ✈ KJFK - KLAX

Flight Track Log - Related Links

Times and Time Zones

All times are in EDT time to prevent confusion due to time zone crossing. See the DAL863 flight status page for this flight to view local times or setup timezone preferences in your user account.

Time Position Orientation Groundspeed Altitude Reporting Facility
EDT Latitude Longitude Course Direction KTS MPH feet Rate Location/Type
12:17PM 40.6300 -73.7770 123° Southeast 179 206 400  Level FlightAware
12:18PM 40.6220 -73.7670 137° Southeast 180 207 1,000 1,800 Climbing FlightAware
12:18PM 40.6050 -73.7490 141° Southeast 213 245 1,600 1,860 Climbing FlightAware
12:18PM 40.5880 -73.7310 141° Southeast 235 270 2,400 2,520 Climbing FlightAware
12:19PM 40.5650 -73.7050 139° Southeast 255 293 3,500 2,220 Climbing FlightAware
12:19PM 40.5480 -73.6830 135° Southeast 267 307 4,100 1,500 Climbing FlightAware
12:19PM 40.5420 -73.6590 108° East 270 311 4,400 1,200 Climbing FlightAware
12:19PM 40.5410 -73.6530 102° East 271 312 4,500 3,000 Climbing FlightAware
12:20PM 40.5540 -73.6150 66° East 267 307 5,900 3,480 Climbing FlightAware
12:20PM 40.5630 -73.6017 48° Northeast 269 310 6,500 3,120 Climbing FlightAware ADS-B
12:20PM 40.5748 -73.5844 48° Northeast 278 320 7,100 3,360 Climbing FlightAware ADS-B
12:21PM 40.5980 -73.5524 46° Northeast 269 310 8,800 3,420 Climbing FlightAware ADS-B
12:21PM 40.6113 -73.5339 47° Northeast 275 316 9,500 2,100 Climbing FlightAware ADS-B
12:21PM 40.6360 -73.5047 42° Northeast 299 344 10,200 1,500 Climbing FlightAware ADS-B
12:22PM 40.6556 -73.4972 16° North 313 360 10,500 1,140 Climbing FlightAware ADS-B
12:22PM 40.6797 -73.4996 356° North 322 371 10,800 1,140 Climbing FlightAware ADS-B
12:22PM 40.6948 -73.5053 344° North 334 384 11,000 1,320 Climbing FlightAware ADS-B
12:22PM 40.7116 -73.5154 336° Northwest 349 402 11,300 1,860 Climbing FlightAware ADS-B
12:23PM 40.7730 -73.5550 334° Northwest 370 426 12,700 2,340 Climbing FlightAware
12:23PM 40.8096 -73.5792 333° Northwest 369 425 13,800 2,700 Climbing FlightAware ADS-B
12:24PM 40.8578 -73.6105 334° Northwest 381 438 15,100 2,400 Climbing FlightAware ADS-B
12:24PM 40.9083 -73.6433 334° Northwest 387 445 16,300 2,340 Climbing FlightAware ADS-B
12:25PM 40.9569 -73.6749 334° Northwest 394 453 17,500 2,280 Climbing FlightAware ADS-B
12:25PM 41.0091 -73.7088 334° Northwest 397 457 18,700 1,980 Climbing FlightAware ADS-B
12:26PM 41.0600 -73.7420 334° Northwest 399 459 19,600 1,680 Climbing FlightAware ADS-B
12:26PM 41.0839 -73.7601 330° Northwest 405 466 20,000 1,800 Climbing FlightAware ADS-B
12:26PM 41.0964 -73.7744 319° Northwest 406 467 20,300 2,100 Climbing FlightAware ADS-B
12:26PM 41.1039 -73.7854 312° West 406 467 20,500 1,860 Climbing FlightAware ADS-B
12:27PM 41.1163 -73.8106 303° West 407 468 20,900 1,860 Climbing FlightAware ADS-B
12:27PM 41.1214 -73.8264 293° West 408 470 21,100 1,800 Climbing FlightAware ADS-B
12:27PM 41.1234 -73.8348 288° West 410 472 21,200 1,200 Climbing FlightAware ADS-B
12:27PM 41.1242 -73.8384 286° West 410 472 21,200 1,500 Level FlightAware ADS-B
12:27PM 41.1355 -73.9017 283° West 413 475 21,900 1,320 Climbing FlightAware ADS-B
12:27PM 41.1372 -73.9123 282° West 414 476 21,900 600 Level FlightAware ADS-B
12:27PM 41.1391 -73.9260 280° West 414 476 22,000 660 Climbing FlightAware ADS-B
12:27PM 41.1401 -73.9348 279° West 414 476 22,000  Level FlightAware ADS-B
12:28PM 41.1419 -73.9674 274° West 415 478 22,000  Level FlightAware ADS-B
12:28PM 41.1420 -73.9791 271° West 415 478 22,000  Level FlightAware ADS-B
12:28PM 41.1414 -73.9954 267° West 417 480 22,000  Level FlightAware ADS-B
12:28PM 41.1406 -74.0078 265° West 417 480 22,000  Level FlightAware ADS-B
12:28PM 41.1393 -74.0199 262° West 417 480 22,000  Level FlightAware ADS-B
12:28PM 41.1374 -74.0341 260° West 419 482 22,000 1,500 Level FlightAware ADS-B
12:29PM 41.1268 -74.0967 257° West 420 483 22,800 1,800 Climbing FlightAware ADS-B
12:29PM 41.1233 -74.1171 257° West 420 483 23,000 1,740 Climbing FlightAware ADS-B
12:29PM 41.1133 -74.1746 257° West 426 490 23,700 1,800 Climbing FlightAware ADS-B
12:29PM 41.1098 -74.1946 257° West 426 490 23,900 1,620 Climbing FlightAware ADS-B
12:30PM 41.0963 -74.2705 257° West 431 496 24,700 1,500 Climbing FlightAware ADS-B
12:30PM 41.0958 -74.2731 256° West 431 496 24,700 1,860 Level FlightAware ADS-B
12:30PM 41.0814 -74.3537 257° West 432 497 25,700 1,740 Climbing FlightAware ADS-B
12:30PM 41.0803 -74.3599 257° West 432 497 25,700 1,500 Level FlightAware ADS-B
12:31PM 41.0673 -74.4326 257° West 433 498 26,500 1,560 Climbing FlightAware ADS-B
12:31PM 41.0526 -74.5142 257° West 436 502 27,300 1,440 Climbing FlightAware ADS-B
12:32PM 41.0383 -74.5926 256° West 438 504 28,000 1,320 Climbing FlightAware ADS-B
12:32PM 41.0288 -74.6446 256° West 442 509 28,400 1,200 Climbing FlightAware ADS-B
12:32PM 41.0208 -74.6807 254° West 443 510 28,700 1,620 Climbing FlightAware ADS-B
12:33PM 41.0025 -74.7583 253° West 439 505 29,600 2,100 Climbing FlightAware ADS-B
12:33PM 40.9836 -74.8386 253° West 425 489 30,900 2,160 Climbing FlightAware ADS-B
12:34PM 40.9663 -74.9136 253° West 417 480 31,900 1,860 Climbing FlightAware ADS-B
12:34PM 40.9496 -74.9869 253° West 411 473 32,800 1,500 Climbing FlightAware ADS-B
12:35PM 40.9325 -75.0593 253° West 409 471 33,400 1,260 Climbing FlightAware ADS-B
12:35PM 40.9154 -75.1311 253° West 407 468 34,100 1,260 Climbing FlightAware ADS-B
12:36PM 40.8980 -75.2040 252° West 405 466 34,700 1,140 Climbing FlightAware ADS-B
12:36PM 40.8807 -75.2758 252° West 404 465 35,300 1,140 Climbing FlightAware ADS-B
12:37PM 40.8637 -75.3467 252° West 402 463 35,900 660 Climbing FlightAware ADS-B
12:37PM 40.8463 -75.4188 252° West 398 458 36,000 60 Climbing FlightAware ADS-B
12:38PM 40.8295 -75.4880 252° West 396 456 36,000  Level FlightAware ADS-B
12:38PM 40.8119 -75.5607 252° West 397 457 36,000  Level FlightAware ADS-B
12:39PM 40.7948 -75.6309 252° West 395 455 36,000  Level FlightAware ADS-B
12:39PM 40.7780 -75.6997 252° West 393 452 36,000  Level FlightAware ADS-B
12:40PM 40.7602 -75.7722 252° West 392 451 36,000  Level FlightAware ADS-B
12:41PM 40.7422 -75.8452 252° West 392 451 36,000  Level FlightAware ADS-B
12:41PM 40.7230 -75.9231 252° West 392 451 36,000  Level FlightAware ADS-B
12:42PM 40.7054 -75.9941 252° West 391 450 36,000  Level FlightAware ADS-B
12:42PM 40.6882 -76.0632 252° West 390 449 36,000  Level FlightAware ADS-B
12:43PM 40.6708 -76.1333 252° West 390 449 36,000  Level FlightAware ADS-B
12:43PM 40.6535 -76.2025 252° West 390 449 36,000  Level FlightAware ADS-B
12:44PM 40.6349 -76.2765 252° West 389 448 36,000  Level FlightAware ADS-B
12:44PM 40.6176 -76.3455 252° West 389 448 36,000  Level FlightAware ADS-B
12:45PM 40.5993 -76.4180 252° West 389 448 36,000  Level FlightAware ADS-B
12:45PM 40.5820 -76.4850 251° West 388 447 36,000  Level FlightAware
12:45PM 40.5787 -76.4997 254° West 389 448 36,000  Level FlightAware ADS-B
12:46PM 40.5611 -76.5720 252° West 389 448 36,000  Level FlightAware ADS-B
12:46PM 40.5567 -76.6157 262° West 385 443 36,000  Level FlightAware ADS-B
12:46PM 40.5570 -76.6388 271° West 385 443 36,000  Level FlightAware ADS-B
12:47PM 40.5627 -76.7099 276° West 385 443 36,000  Level FlightAware ADS-B
12:47PM 40.5699 -76.7826 277° West 385 443 36,000  Level FlightAware ADS-B
12:48PM 40.5790 -76.8760 277° West 384 442 36,000  Level FlightAware
12:48PM 40.5801 -76.8927 275° West 385 443 36,000  Level FlightAware ADS-B
12:49PM 40.5865 -76.9662 277° West 386 444 36,000  Level FlightAware ADS-B
12:49PM 40.5929 -77.0408 276° West 386 444 36,000  Level FlightAware ADS-B
12:50PM 40.5996 -77.1182 277° West 386 444 36,000  Level FlightAware ADS-B
12:50PM 40.6069 -77.2036 276° West 387 445 36,000  Level FlightAware ADS-B
12:51PM 40.6153 -77.3020 276° West 387 445 36,000  Level FlightAware ADS-B
12:52PM 40.6294 -77.4687 276° West 389 448 36,000  Level FlightAware ADS-B
12:55PM 40.6570 -77.8100 276° West 395 455 36,000 60 Level FlightAware
12:56PM 40.6650 -77.9090 276° West 396 456 36,300 780 Climbing FlightAware
12:56PM 40.6730 -78.0040 276° West 391 450 37,100 1,200 Climbing FlightAware
12:57PM 40.6810 -78.1110 276° West 378 435 38,000 600 Climbing FlightAware
12:58PM 40.6880 -78.1990 276° West 365 420 38,000  Level FlightAware
12:58PM 40.6950 -78.2960 275° West 369 425 38,000  Level FlightAware
12:59PM 40.7030 -78.3910 276° West 377 434 38,000  Level FlightAware
01:00PM 40.7100 -78.4870 276° West 381 438 38,000  Level FlightAware
01:00PM 40.7170 -78.5890 275° West 387 445 38,000  Level FlightAware
01:01PM 40.7240 -78.6800 276° West 390 449 38,000  Level FlightAware
01:02PM 40.7320 -78.7880 276° West 393 452 38,000  Level FlightAware
01:03PM 40.7380 -78.8790 275° West 394 453 38,000  Level FlightAware
01:03PM 40.7460 -78.9900 275° West 394 453 38,000  Level FlightAware
01:04PM 40.7530 -79.0870 275° West 393 452 38,000  Level FlightAware
01:05PM 40.7600 -79.1830 276° West 394 453 38,000  Level FlightAware
01:05PM 40.7670 -79.2910 275° West 394 453 38,000  Level FlightAware
01:06PM 40.7730 -79.3780 275° West 393 452 38,000  Level FlightAware
01:07PM 40.7800 -79.4920 275° West 392 451 38,000  Level FlightAware
01:07PM 40.7870 -79.5980 275° West 392 451 38,000  Level FlightAware
01:08PM 40.7930 -79.6950 275° West 393 452 38,000  Level FlightAware
01:09PM 40.8000 -79.8030 275° West 394 453 38,000  Level FlightAware
01:10PM 40.8060 -79.8990 275° West 395 455 38,000  Level FlightAware
01:10PM 40.8130 -80.0040 275° West 396 456 38,000  Level FlightAware
01:11PM 40.8180 -80.0980 274° West 399 459 38,000  Level FlightAware
01:12PM 40.8240 -80.1970 275° West 400 460 38,000  Level FlightAware
01:12PM 40.8280 -80.3050 273° West 400 460 38,000  Level FlightAware
01:13PM 40.8300 -80.4080 272° West 402 463 38,000  Level FlightAware
01:14PM 40.8330 -80.5160 272° West 404 465 38,000  Level FlightAware
01:14PM 40.8360 -80.6160 272° West 407 468 38,000  Level FlightAware
01:15PM 40.8380 -80.7130 272° West 409 471 38,000  Level FlightAware
01:16PM 40.8410 -80.8140 272° West 413 475 38,000  Level FlightAware
01:16PM 40.8430 -80.9150 272° West 415 478 38,000  Level FlightAware
01:17PM 40.8450 -81.0280 271° West 418 481 38,000  Level FlightAware
01:18PM 40.8480 -81.1330 272° West 420 483 38,000  Level FlightAware
01:19PM 40.8500 -81.2350 272° West 422 486 38,000  Level FlightAware
01:19PM 40.8520 -81.3510 271° West 424 488 38,000  Level FlightAware
01:20PM 40.8540 -81.4520 272° West 426 490 38,000  Level FlightAware
01:21PM 40.8560 -81.5720 271° West 427 491 38,000  Level FlightAware
01:21PM 40.8580 -81.6760 271° West 428 493 38,000  Level FlightAware
01:22PM 40.8590 -81.7760 271° West 429 494 38,000  Level FlightAware
01:23PM 40.8610 -81.8950 271° West 430 495 38,000  Level FlightAware
01:23PM 40.8620 -81.9990 271° West 431 496 38,000  Level FlightAware
01:24PM 40.8640 -82.1180 271° West 434 499 38,000  Level FlightAware
01:25PM 40.8650 -82.2270 271° West 435 501 38,000  Level FlightAware
01:26PM 40.8660 -82.3420 271° West 436 502 38,000  Level FlightAware
01:27PM 40.8670 -82.4810 271° West 437 503 38,000  Level FlightAware
01:27PM 40.8700 -82.5980 272° West 436 502 38,000  Level FlightAware
01:28PM 40.8760 -82.6970 275° West 437 503 38,000  Level FlightAware
01:29PM 40.8820 -82.7870 275° West 437 503 38,000  Level FlightAware
01:29PM 40.8940 -82.9140 277° West 437 503 38,000  Level FlightAware
01:30PM 40.9040 -83.0470 276° West 437 503 38,000  Level FlightAware
01:31PM 40.9120 -83.1540 276° West 437 503 38,000  Level FlightAware
01:31PM 40.9210 -83.2760 276° West 436 502 38,000  Level FlightAware
01:32PM 40.9290 -83.3820 276° West 436 502 38,000  Level FlightAware
01:33PM 40.9370 -83.4970 275° West 435 501 38,000  Level FlightAware
01:34PM 40.9450 -83.6040 276° West 434 499 38,000  Level FlightAware
01:34PM 40.9520 -83.7090 275° West 435 501 38,000  Level FlightAware
01:35PM 40.9570 -83.8280 273° West 435 501 38,000  Level FlightAware
01:36PM 40.9590 -83.9320 271° West 435 501 38,000  Level FlightAware
01:36PM 40.9620 -84.0440 272° West 436 502 38,000  Level FlightAware
01:37PM 40.9640 -84.1620 271° West 438 504 38,000  Level FlightAware
01:38PM 40.9660 -84.2690 271° West 438 504 38,000  Level FlightAware
01:38PM 40.9680 -84.3900 271° West 439 505 38,000  Level FlightAware
01:39PM 40.9700 -84.4980 271° West 440 506 38,000  Level FlightAware
01:40PM 40.9720 -84.6180 271° West 440 506 38,000  Level FlightAware
01:41PM 40.9730 -84.7220 271° West 441 507 38,000  Level FlightAware
01:41PM 40.9750 -84.8310 271° West 442 509 38,000  Level FlightAware
01:42PM 40.9760 -84.9510 271° West 442 509 38,000  Level FlightAware
01:43PM 40.9780 -85.0580 271° West 443 510 38,000  Level FlightAware
01:44PM 40.9750 -85.2180 269° West 443 510 38,000  Level FlightAware
01:44PM 40.9620 -85.3280 261° West 444 511 38,000  Level FlightAware
01:45PM 40.9490 -85.4370 261° West 445 512 38,000  Level FlightAware
01:46PM 40.9260 -85.6210 261° West 444 511 38,000  Level FlightAware
01:47PM 40.9120 -85.7380 261° West 444 511 38,000  Level FlightAware
01:48PM 40.8970 -85.8540 260° West 446 513 38,000  Level FlightAware
01:48PM 40.8840 -85.9590 261° West 447 514 38,000  Level FlightAware
01:49PM 40.8690 -86.0800 261° West 449 517 38,000  Level FlightAware
01:50PM 40.8550 -86.1880 260° West 449 517 38,000  Level FlightAware
01:50PM 40.8390 -86.3080 260° West 450 518 38,000  Level FlightAware
01:51PM 40.8250 -86.4180 260° West 451 519 38,000  Level FlightAware
01:52PM 40.8130 -86.5090 260° West 451 519 38,000  Level FlightAware
01:52PM 40.7940 -86.6510 260° West 451 519 38,000  Level FlightAware
01:53PM 40.7800 -86.7540 260° West 450 518 38,000  Level FlightAware
01:54PM 40.7640 -86.8750 260° West 449 517 38,000  Level FlightAware
01:55PM 40.7480 -86.9940 260° West 449 517 38,000  Level FlightAware
01:55PM 40.7360 -87.0800 260° West 448 516 38,000  Level FlightAware
01:56PM 40.7230 -87.1750 260° West 448 516 38,000  Level FlightAware
01:56PM 40.7060 -87.2940 259° West 447 514 38,000  Level FlightAware
01:57PM 40.6910 -87.4010 260° West 446 513 38,000  Level FlightAware
01:58PM 40.6770 -87.5050 260° West 445 512 38,000  Level FlightAware
01:59PM 40.6590 -87.6280 259° West 444 511 38,000  Level FlightAware
01:59PM 40.6440 -87.7360 260° West 443 510 38,000  Level FlightAware
02:00PM 40.6300 -87.8360 260° West 441 507 38,000  Level FlightAware
02:01PM 40.6120 -87.9560 259° West 439 505 38,000  Level FlightAware
02:01PM 40.5970 -88.0610 259° West 438 504 38,000  Level FlightAware
02:02PM 40.5820 -88.1630 259° West 440 506 38,000  Level FlightAware
02:03PM 40.5620 -88.2840 258° West 439 505 38,000  Level FlightAware
02:03PM 40.5440 -88.3880 257° West 439 505 38,000  Level FlightAware
02:04PM 40.5270 -88.4930 258° West 440 506 38,000  Level FlightAware
02:05PM 40.5070 -88.6070 257° West 440 506 38,000  Level FlightAware
02:05PM 40.4910 -88.7060 258° West 441 507 38,000  Level FlightAware
02:06PM 40.4740 -88.8040 257° West 440 506 38,000  Level FlightAware
02:07PM 40.4550 -88.9120 257° West 439 505 38,000  Level FlightAware
02:08PM 40.4340 -89.0330 257° West 440 506 38,000  Level FlightAware
02:08PM 40.4130 -89.1540 257° West 440 506 38,000  Level FlightAware
02:09PM 40.3950 -89.2570 257° West 440 506 38,000  Level FlightAware
02:10PM 40.3740 -89.3780 257° West 440 506 38,000  Level FlightAware
02:10PM 40.3570 -89.4720 257° West 441 507 38,000  Level FlightAware
02:11PM 40.3380 -89.5790 257° West 441 507 38,000  Level FlightAware
02:12PM 40.3180 -89.6890 257° West 441 507 38,000  Level FlightAware
02:12PM 40.3000 -89.7890 257° West 440 506 38,000  Level FlightAware
02:13PM 40.2760 -89.9220 257° West 439 505 38,000  Level FlightAware
02:14PM 40.2570 -90.0250 256° West 439 505 38,000  Level FlightAware
02:15PM 40.2380 -90.1280 256° West 439 505 38,000  Level FlightAware
02:15PM 40.2180 -90.2400 257° West 437 503 38,000  Level FlightAware
02:16PM 40.2010 -90.3290 256° West 437 503 38,000  Level FlightAware
02:17PM 40.1770 -90.4600 257° West 437 503 38,000  Level FlightAware
02:17PM 40.1620 -90.5390 256° West 437 503 38,000  Level FlightAware
02:18PM 40.1360 -90.6780 256° West 437 503 38,000  Level FlightAware
02:19PM 40.1170 -90.7760 256° West 437 503 38,000  Level FlightAware
02:19PM 40.0990 -90.8680 256° West 437 503 38,000  Level FlightAware
02:20PM 40.0830 -90.9550 257° West 437 503 38,000  Level FlightAware
02:21PM 40.0550 -91.1010 256° West 439 505 38,000  Level FlightAware
02:22PM 40.0340 -91.2010 255° West 439 505 38,000  Level FlightAware
02:22PM 40.0160 -91.2880 255° West 439 505 38,000  Level FlightAware
02:23PM 39.9980 -91.3750 255° West 439 505 38,000  Level FlightAware
02:24PM 39.9800 -91.4620 255° West 439 505 38,000  Level FlightAware
02:24PM 39.9560 -91.6040 258° West 439 505 38,000  Level FlightAware
02:25PM 39.9270 -91.7500 256° West 439 505 38,000  Level FlightAware
02:26PM 39.9100 -91.8320 255° West 439 505 38,000  Level FlightAware
02:26PM 39.8920 -91.9190 255° West 439 505 38,000  Level FlightAware
02:27PM 39.8650 -92.0580 256° West 439 505 38,000  Level FlightAware
02:28PM 39.8370 -92.1920 255° West 439 505 38,000  Level FlightAware
02:29PM 39.8190 -92.2790 255° West 439 505 38,000  Level FlightAware
02:30PM 39.7900 -92.4210 255° West 443 510 38,000  Level FlightAware
02:30PM 39.7720 -92.5090 255° West 443 510 38,000  Level FlightAware
02:31PM 39.7490 -92.6220 255° West 446 513 38,000  Level FlightAware
02:32PM 39.7250 -92.7360 255° West 447 514 38,000  Level FlightAware
02:32PM 39.7030 -92.8380 254° West 447 514 38,000  Level FlightAware
02:33PM 39.6740 -92.9750 255° West 450 518 38,000  Level FlightAware
02:34PM 39.6530 -93.0770 255° West 449 517 38,000  Level FlightAware
02:34PM 39.6280 -93.1930 254° West 448 516 38,000 -480 Level FlightAware
02:35PM 39.6060 -93.2960 255° West 446 513 37,400 -1,080 Descending FlightAware
02:36PM 39.5840 -93.3980 254° West 448 516 36,600 -1,020 Descending FlightAware
02:37PM 39.5580 -93.5180 254° West 449 517 36,000 -480 Descending FlightAware
02:37PM 39.5360 -93.6200 254° West 449 517 36,000  Level FlightAware
02:38PM 39.5130 -93.7240 254° West 448 516 36,000  Level FlightAware
02:39PM 39.4880 -93.8390 254° West 452 520 36,000  Level FlightAware
02:39PM 39.4650 -93.9410 254° West 452 520 36,000  Level FlightAware
02:40PM 39.4390 -94.0590 254° West 451 519 36,000  Level FlightAware
02:41PM 39.4150 -94.1650 254° West 451 519 36,000  Level FlightAware
02:41PM 39.3900 -94.2770 254° West 450 518 36,000  Level FlightAware
02:42PM 39.3740 -94.3460 253° West 450 518 36,000  Level FlightAware
02:43PM 39.3490 -94.4600 254° West 452 520 36,000  Level FlightAware
02:43PM 39.3250 -94.5630 253° West 453 521 36,000  Level FlightAware
02:44PM 39.3010 -94.6670 253° West 454 522 36,000  Level FlightAware
02:45PM 39.2740 -94.7850 254° West 454 522 36,000  Level FlightAware
02:45PM 39.2510 -94.8900 254° West 455 524 36,000  Level FlightAware
02:46PM 39.2250 -95.0040 254° West 456 525 36,000  Level FlightAware
02:47PM 39.2030 -95.1020 254° West 457 526 36,000  Level FlightAware
02:48PM 39.1680 -95.2550 254° West 458 527 36,000  Level FlightAware
02:48PM 39.1750 -95.2260 73° East 459 528 36,000  Level FlightAware
02:49PM 39.1500 -95.3360 254° West 459 528 36,000  Level FlightAware
02:50PM 39.1290 -95.4290 254° West 459 528 36,000  Level FlightAware
02:51PM 39.1080 -95.5180 253° West 459 528 36,000  Level FlightAware
02:51PM 39.0920 -95.5860 253° West 459 528 36,000  Level FlightAware
02:52PM 39.0630 -95.7130 254° West 457 526 36,000  Level FlightAware
02:53PM 39.0390 -95.8140 253° West 458 527 36,000  Level FlightAware
02:53PM 39.0180 -95.9030 253° West 458 527 36,000  Level FlightAware
02:54PM 38.9780 -96.0750 253° West 460 529 36,000  Level FlightAware
02:55PM 38.9530 -96.1790 253° West 460 529 36,000  Level FlightAware
02:56PM 38.9320 -96.2680 253° West 460 529 36,000  Level FlightAware
02:56PM 38.9110 -96.3570 253° West 460 529 36,000  Level FlightAware
02:57PM 38.8900 -96.4460 253° West 460 529 36,000  Level FlightAware
02:58PM 38.8680 -96.5350 252° West 460 529 36,000  Level FlightAware
02:58PM 38.8420 -96.6460 253° West 460 529 36,000  Level FlightAware
02:59PM 38.8210 -96.7350 253° West 460 529 36,000  Level FlightAware
03:00PM 38.8000 -96.8240 253° West 460 529 36,000  Level FlightAware
03:00PM 38.7790 -96.9120 253° West 460 529 36,000  Level FlightAware
03:01PM 38.7570 -97.0010 252° West 460 529 36,000  Level FlightAware
03:02PM 38.6350 -97.4800 252° West 456 525 36,000  Level FlightAware
03:03PM 38.6140 -97.5640 252° West 456 525 36,000  Level FlightAware
03:03PM 38.5890 -97.6680 253° West 455 524 36,000  Level FlightAware
03:04PM 38.5680 -97.7560 253° West 455 524 36,000  Level FlightAware
03:05PM 38.5420 -97.8650 253° West 455 524 36,000  Level FlightAware
03:05PM 38.5210 -97.9530 253° West 455 524 36,000  Level FlightAware
03:06PM 38.4790 -98.0970 250° West 458 527 36,000  Level FlightAware
03:07PM 38.4560 -98.1850 252° West 460 529 36,000  Level FlightAware
03:07PM 38.4360 -98.2640 252° West 460 529 36,000  Level FlightAware
03:08PM 38.4080 -98.3740 252° West 460 529 36,000  Level FlightAware
03:09PM 38.3850 -98.4620 252° West 460 529 36,000  Level FlightAware
03:09PM 38.3630 -98.5500 252° West 460 529 36,000  Level FlightAware
03:10PM 38.3410 -98.6370 252° West 460 529 36,000  Level FlightAware
03:11PM 38.3180 -98.7250 252° West 460 529 36,000  Level FlightAware
03:12PM 38.2900 -98.8350 252° West 460 529 36,000  Level FlightAware
03:12PM 38.2680 -98.9220 252° West 460 529 36,000  Level FlightAware
03:13PM 38.2460 -99.0100 252° West 460 529 36,000  Level FlightAware
03:14PM 38.2230 -99.0980 252° West 460 529 36,000  Level FlightAware
03:14PM 38.2010 -99.1850 252° West 460 529 36,000  Level FlightAware
03:15PM 38.1730 -99.2950 252° West 460 529 36,000  Level FlightAware
03:16PM 38.1510 -99.3820 252° West 460 529 36,000  Level FlightAware
03:16PM 38.1280 -99.4700 252° West 460 529 36,000  Level FlightAware
03:17PM 38.0447 -99.7389 252° West 456 525 36,000  Level Kansas City Center
03:18PM 37.9969 -99.9072 250° West 455 524 36,000  Level Kansas City Center
03:19PM 37.9561 -100.0525 250° West 456 525 36,000  Level Kansas City Center
03:20PM 37.9094 -100.2214 251° West 456 525 36,000  Level Kansas City Center
03:21PM 37.8686 -100.3653 250° West 456 525 36,000  Level Kansas City Center
03:22PM 37.8211 -100.5333 250° West 455 524 36,000  Level Kansas City Center
03:23PM 37.7783 -100.6847 250° West 456 525 36,000  Level Kansas City Center
03:24PM 37.7436 -100.8369 254° West 452 520 36,000  Level Kansas City Center
03:25PM 37.7092 -100.9903 254° West 454 522 36,000  Level Kansas City Center
03:26PM 37.6731 -101.1558 255° West 454 522 36,000  Level Kansas City Center
03:27PM 37.6408 -101.3019 254° West 453 521 36,000  Level Kansas City Center
03:28PM 37.6022 -101.4733 254° West 455 524 36,000  Level Kansas City Center
03:29PM 37.5694 -101.6206 254° West 456 525 36,000  Level Kansas City Center
03:30PM 37.5306 -101.7917 254° West 456 525 36,000  Level Kansas City Center
03:31PM 37.4964 -101.9386 254° West 457 526 36,000  Level Kansas City Center
03:32PM 37.4856 -101.9883 255° West 457 526 36,000  Level Albuquerque Center
03:38PM 37.2565 -102.9620 255° West 460 529 36,000  Level FlightAware ADS-B
03:38PM 37.2372 -103.0430 253° West 462 532 36,000  Level FlightAware ADS-B
03:39PM 37.2180 -103.1220 253° West 462 532 36,000  Level FlightAware ADS-B
03:39PM 37.1991 -103.2000 253° West 462 532 36,000  Level FlightAware ADS-B
03:40PM 37.1796 -103.2800 253° West 462 532 36,000  Level FlightAware ADS-B
03:40PM 37.1609 -103.3570 253° West 462 532 36,000  Level FlightAware ADS-B
03:41PM 37.1401 -103.4420 253° West 462 532 36,000  Level FlightAware ADS-B
03:42PM 37.1108 -103.5647 253° West 463 533 36,000  Level Albuquerque Center
03:43PM 37.0683 -103.7364 253° West 461 531 36,000  Level Albuquerque Center
03:44PM 37.0314 -103.8847 253° West 462 532 36,000  Level Albuquerque Center
03:45PM 36.9822 -104.0806 253° West 461 531 36,000  Level Albuquerque Center
03:46PM 36.9453 -104.2275 253° West 461 531 36,000  Level Albuquerque Center
03:47PM 36.9025 -104.3981 253° West 460 529 36,000  Level Albuquerque Center
03:48PM 36.8764 -104.4964 252° West 460 529 36,000  Level Denver Center
03:48PM 36.8647 -104.5433 253° West 459 528 36,000  Level Albuquerque Center
03:49PM 36.8206 -104.7139 252° West 460 529 36,000  Level Albuquerque Center
03:50PM 36.7836 -104.8592 252° West 460 529 36,000  Level Albuquerque Center
03:51PM 36.7458 -105.0028 252° West 457 526 36,000  Level Albuquerque Center
03:52PM 36.7019 -105.1722 252° West 460 529 36,000  Level Albuquerque Center
03:53PM 36.6642 -105.3161 252° West 457 526 36,000  Level Albuquerque Center
03:54PM 36.6331 -105.4375 252° West 456 525 36,000  Level Denver Center
03:55PM 36.6206 -105.4839 251° West 456 525 36,000  Level Albuquerque Center
03:56PM 36.5817 -105.6206 251° West 458 527 36,000  Level Albuquerque Center
03:57PM 36.5419 -105.7697 252° West 456 525 36,000  Level Albuquerque Center
03:58PM 36.4986 -105.9378 252° West 462 532 36,000  Level Albuquerque Center
03:59PM 36.4539 -106.1036 252° West 457 526 36,000  Level Albuquerque Center
04:00PM 36.4147 -106.2458 251° West 455 524 36,000  Level Albuquerque Center
04:05PM 36.1730 -107.1120 251° West 459 528 36,000  Level FlightAware
04:06PM 36.1420 -107.2230 251° West 459 528 36,000  Level FlightAware
04:07PM 36.1130 -107.3230 250° West 461 531 36,000  Level FlightAware
04:07PM 36.0850 -107.4230 251° West 460 529 36,000  Level FlightAware
04:08PM 36.0540 -107.5300 250° West 459 528 36,000  Level FlightAware
04:09PM 36.0260 -107.6290 251° West 459 528 36,000  Level FlightAware
04:10PM 35.9820 -107.7790 250° West 459 528 36,000  Level FlightAware
04:11PM 35.9540 -107.8760 250° West 459 528 36,000  Level FlightAware
04:11PM 35.9270 -107.9690 250° West 458 527 36,000  Level FlightAware
04:12PM 35.9030 -108.0510 250° West 458 527 36,000  Level FlightAware
04:13PM 35.8720 -108.1550 250° West 458 527 36,000  Level FlightAware
04:13PM 35.8480 -108.2390 251° West 458 527 36,000  Level FlightAware
04:14PM 35.8230 -108.3220 250° West 458 527 36,000  Level FlightAware
04:15PM 35.7980 -108.4050 250° West 458 527 36,000  Level FlightAware
04:15PM 35.7740 -108.4890 251° West 458 527 36,000  Level FlightAware
04:16PM 35.7430 -108.5930 250° West 458 527 36,000  Level FlightAware
04:17PM 35.7180 -108.6770 250° West 458 527 36,000  Level FlightAware
04:17PM 35.6940 -108.7600 250° West 458 527 36,000  Level FlightAware
04:18PM 35.6690 -108.8430 250° West 458 527 36,000  Level FlightAware
04:19PM 35.6440 -108.9270 250° West 458 527 36,000  Level FlightAware
04:20PM 35.6140 -109.0310 250° West 458 527 36,000  Level FlightAware
04:20PM 35.5890 -109.1140 250° West 458 527 36,000  Level FlightAware
04:21PM 35.5640 -109.1970 250° West 458 527 36,000  Level FlightAware
04:22PM 35.4675 -109.4981 250° West 460 529 36,000  Level Los Angeles Center
04:22PM 35.4331 -109.6147 250° West 460 529 36,000  Level Albuquerque Center
04:23PM 35.3817 -109.7794 249° West 460 529 36,000  Level Albuquerque Center
04:24PM 35.3386 -109.9183 249° West 457 526 36,000  Level Albuquerque Center
04:30PM 35.0620 -110.7960 249° West 468 539 36,000  Level FlightAware
04:31PM 35.0390 -110.8990 255° West 467 537 36,000  Level FlightAware
04:32PM 35.0180 -111.0070 257° West 467 537 36,000  Level FlightAware
04:32PM 35.0010 -111.0910 256° West 467 537 36,000  Level FlightAware
04:33PM 34.9730 -111.2220 255° West 468 539 36,000  Level FlightAware
04:34PM 34.9540 -111.3140 256° West 467 537 36,000  Level FlightAware
04:34PM 34.9350 -111.4010 255° West 467 537 36,000  Level FlightAware
04:35PM 34.9070 -111.5360 256° West 466 536 36,000  Level FlightAware
04:36PM 34.8820 -111.6530 255° West 467 537 36,000  Level FlightAware
04:37PM 34.8590 -111.7630 256° West 468 539 36,000  Level FlightAware
04:37PM 34.8390 -111.8550 255° West 469 540 36,000  Level FlightAware
04:38PM 34.8140 -111.9700 255° West 468 539 36,000  Level FlightAware
04:39PM 34.7890 -112.0840 255° West 468 539 36,000  Level FlightAware
04:39PM 34.7670 -112.1870 255° West 469 540 36,000  Level FlightAware
04:40PM 34.7420 -112.3000 255° West 470 541 36,000  Level FlightAware
04:41PM 34.7200 -112.4010 255° West 469 540 36,000  Level FlightAware
04:42PM 34.7000 -112.5040 257° West 468 539 36,000  Level FlightAware
04:42PM 34.6860 -112.6230 262° West 466 536 36,000  Level FlightAware
04:43PM 34.6740 -112.7260 262° West 465 535 36,000  Level FlightAware
04:44PM 34.6620 -112.8290 262° West 464 534 36,000  Level FlightAware
04:44PM 34.6480 -112.9420 261° West 464 534 36,000  Level FlightAware
04:45PM 34.6350 -113.0470 261° West 464 534 36,000  Level FlightAware
04:46PM 34.6230 -113.1520 262° West 464 534 36,000  Level FlightAware
04:46PM 34.6090 -113.2660 262° West 466 536 36,000  Level FlightAware
04:47PM 34.5960 -113.3700 261° West 466 536 36,000  Level FlightAware
04:48PM 34.5840 -113.4670 261° West 466 536 36,000  Level FlightAware
04:49PM 34.5690 -113.5870 261° West 464 534 36,000  Level FlightAware
04:49PM 34.5450 -113.7240 258° West 462 532 36,000 -600 Level FlightAware
04:50PM 34.5170 -113.8620 256° West 461 531 34,900 -1,320 Descending FlightAware
04:51PM 34.4980 -113.9560 256° West 478 550 34,000 -660 Descending FlightAware
04:52PM 34.4720 -114.0850 256° West 475 547 34,000  Level FlightAware
04:52PM 34.4520 -114.1830 256° West 470 541 34,000  Level FlightAware
04:53PM 34.4270 -114.3010 256° West 470 541 34,000  Level FlightAware
04:54PM 34.4030 -114.4180 256° West 467 537 34,000  Level FlightAware
04:55PM 34.3860 -114.4960 255° West 467 537 34,000  Level FlightAware
04:55PM 34.3620 -114.6030 255° West 467 537 34,000  Level FlightAware
04:56PM 34.3430 -114.6890 255° West 467 537 34,000  Level FlightAware
04:57PM 34.3240 -114.7750 255° West 467 537 34,000  Level FlightAware
04:57PM 34.3050 -114.8610 255° West 467 537 34,000  Level FlightAware
04:58PM 34.2860 -114.9470 255° West 467 537 34,000  Level FlightAware
04:59PM 34.2620 -115.0540 255° West 467 537 34,000  Level FlightAware
05:00PM 34.2390 -115.1940 259° West 435 501 34,000  Level FlightAware
05:00PM 34.2180 -115.2920 255° West 439 505 34,000  Level FlightAware
05:01PM 34.1940 -115.4010 255° West 438 504 34,000  Level FlightAware
05:02PM 34.1730 -115.4940 255° West 439 505 34,000 -360 Level FlightAware
05:02PM 34.1500 -115.5990 255° West 433 498 33,500 -900 Descending FlightAware
05:03PM 34.1300 -115.6890 255° West 426 490 32,800 -1,140 Descending FlightAware
05:04PM 34.1090 -115.7950 257° West 420 483 31,900 -1,140 Descending FlightAware
05:04PM 34.0950 -115.8860 260° West 413 475 31,200 -1,080 Descending FlightAware
05:05PM 34.0820 -115.9740 260° West 409 471 30,500 -1,140 Descending FlightAware
05:06PM 34.0670 -116.0730 260° West 406 467 29,600 -1,140 Descending FlightAware
05:07PM 34.0540 -116.1640 260° West 401 461 28,900 -1,200 Descending FlightAware
05:07PM 34.0400 -116.2530 259° West 401 461 28,000 -1,200 Descending FlightAware
05:08PM 34.0250 -116.3520 260° West 398 458 27,200 -1,020 Descending FlightAware
05:09PM 34.0130 -116.4370 260° West 393 452 26,600 -960 Descending FlightAware
05:09PM 34.0010 -116.5340 262° West 388 447 25,900 -1,020 Descending FlightAware
05:10PM 33.9950 -116.6180 265° West 385 443 25,200 -1,140 Descending FlightAware
05:11PM 33.9880 -116.7040 264° West 380 437 24,400 -1,680 Descending FlightAware
05:11PM 33.9800 -116.8000 264° West 375 432 22,900 -2,580 Descending FlightAware
05:12PM 33.9730 -116.8820 264° West 389 448 20,800 -3,180 Descending FlightAware
05:13PM 33.9650 -116.9830 265° West 401 461 18,400 -2,640 Descending FlightAware
05:14PM 33.9580 -117.0720 265° West 392 451 17,100 -1,380 Descending FlightAware
05:14PM 33.9510 -117.1540 264° West 373 429 16,600 -1,440 Descending FlightAware
05:15PM 33.9420 -117.2540 264° West 382 440 15,100 -1,860 Descending FlightAware
05:16PM 33.9350 -117.3360 264° West 375 432 14,000 -1,380 Descending FlightAware
05:16PM 33.9470 -117.4200 280° West 344 396 13,200 -1,020 Descending FlightAware
05:17PM 33.9730 -117.4880 295° West 324 373 12,600 -1,020 Descending FlightAware
05:18PM 33.9960 -117.5530 293° West 306 352 11,900 -1,140 Descending FlightAware
05:18PM 34.0120 -117.6170 287° West 304 350 11,100 -1,140 Descending FlightAware
05:19PM 34.0090 -117.6680 266° West 299 344 10,400 -1,320 Descending FlightAware
05:20PM 34.0010 -117.7430 263° West 296 341 9,500 -1,500 Descending FlightAware
05:20PM 33.9970 -117.7820 263° West 294 338 8,900 -1,320 Descending FlightAware
05:21PM 33.9920 -117.8310 263° West 291 335 8,300 -1,080 Descending FlightAware
05:21PM 33.9900 -117.8560 264° West 279 321 8,100 -780 Descending FlightAware
05:21PM 33.9860 -117.8920 262° West 258 297 7,800 -780 Descending FlightAware
05:21PM 33.9840 -117.9140 264° West 247 284 7,600 -1,200 Descending FlightAware
05:22PM 33.9800 -117.9550 263° West 239 275 6,900 -1,440 Descending FlightAware
05:22PM 33.9770 -117.9850 263° West 234 269 6,300 -1,500 Descending FlightAware
05:23PM 33.9750 -118.0070 264° West 232 267 5,900 -1,380 Descending FlightAware
05:23PM 33.9720 -118.0440 264° West 229 264 5,300 -1,020 Descending FlightAware
05:24PM 33.9690 -118.0740 263° West 217 250 5,000 -780 Descending FlightAware
05:24PM 33.9670 -118.0930 263° West 208 239 4,800 -1,080 Descending FlightAware
05:24PM 33.9630 -118.1270 262° West 201 231 4,200 -1,200 Descending FlightAware
05:25PM 33.9620 -118.1430 266° West 196 226 3,900 -1,200 Descending FlightAware
05:25PM 33.9600 -118.1600 262° West 190 219 3,600 -1,080 Descending FlightAware
05:25PM 33.9570 -118.1850 262° West 190 219 3,200 -960 Descending FlightAware
05:26PM 33.9550 -118.2130 265° West 188 216 2,800 -900 Descending FlightAware
05:26PM 33.9520 -118.2420 263° West 187 215 2,400 -600 Descending FlightAware
05:27PM 33.9470 -118.2810 261° West 187 215 2,100 -540 Descending FlightAware
05:27PM 33.9450 -118.3110 265° West 188 216 1,700 -1,080 Descending FlightAware
05:28PM 33.9420 -118.3370 262° West 140 161 900 -780 Descending FlightAware
05:29PM 33.9400 -118.3570 263° West 137 158 900  Level FlightAware